sensor_id;sensor_type;location;lat;lon;timestamp;P1;durP1;ratioP1;P2;durP2;ratioP2
45970;SDS011;31681;48.982;8.394;2022-11-15T00:01:31;17.52;;;11.07;;
45970;SDS011;31681;48.982;8.394;2022-11-15T00:04:15;15.30;;;10.33;;
45970;SDS011;31681;48.982;8.394;2022-11-15T00:06:58;20.20;;;11.93;;
45970;SDS011;31681;48.982;8.394;2022-11-15T00:09:42;21.07;;;11.33;;
45970;SDS011;31681;48.982;8.394;2022-11-15T00:12:27;15.73;;;10.83;;
45970;SDS011;31681;48.982;8.394;2022-11-15T00:15:11;15.77;;;9.67;;
45970;SDS011;31681;48.982;8.394;2022-11-15T00:17:55;16.88;;;10.93;;
45970;SDS011;31681;48.982;8.394;2022-11-15T00:20:39;15.23;;;10.10;;
45970;SDS011;31681;48.982;8.394;2022-11-15T00:23:23;16.87;;;10.63;;
45970;SDS011;31681;48.982;8.394;2022-11-15T00:26:08;20.43;;;11.07;;
45970;SDS011;31681;48.982;8.394;2022-11-15T00:28:54;18.43;;;11.10;;
45970;SDS011;31681;48.982;8.394;2022-11-15T00:31:38;16.03;;;10.60;;
45970;SDS011;31681;48.982;8.394;2022-11-15T00:34:22;19.42;;;11.43;;
45970;SDS011;31681;48.982;8.394;2022-11-15T00:37:06;18.08;;;11.00;;
45970;SDS011;31681;48.982;8.394;2022-11-15T00:39:50;15.67;;;10.33;;
45970;SDS011;31681;48.982;8.394;2022-11-15T00:42:34;17.30;;;12.05;;
45970;SDS011;31681;48.982;8.394;2022-11-15T00:45:21;19.83;;;10.80;;
45970;SDS011;31681;48.982;8.394;2022-11-15T00:48:05;18.23;;;11.32;;
45970;SDS011;31681;48.982;8.394;2022-11-15T00:50:49;16.87;;;10.80;;
45970;SDS011;31681;48.982;8.394;2022-11-15T00:53:33;18.87;;;11.03;;
45970;SDS011;31681;48.982;8.394;2022-11-15T00:56:17;21.23;;;11.30;;
45970;SDS011;31681;48.982;8.394;2022-11-15T00:59:01;21.23;;;11.87;;
45970;SDS011;31681;48.982;8.394;2022-11-15T01:01:45;17.83;;;10.77;;
45970;SDS011;31681;48.982;8.394;2022-11-15T01:04:29;19.33;;;11.07;;
45970;SDS011;31681;48.982;8.394;2022-11-15T01:07:13;16.33;;;10.33;;
45970;SDS011;31681;48.982;8.394;2022-11-15T01:09:57;15.60;;;10.33;;
45970;SDS011;31681;48.982;8.394;2022-11-15T01:12:41;18.53;;;11.00;;
45970;SDS011;31681;48.982;8.394;2022-11-15T01:15:25;15.47;;;10.40;;
45970;SDS011;31681;48.982;8.394;2022-11-15T01:18:09;15.43;;;10.00;;
45970;SDS011;31681;48.982;8.394;2022-11-15T01:20:53;18.40;;;11.07;;
45970;SDS011;31681;48.982;8.394;2022-11-15T01:23:37;13.77;;;9.60;;
45970;SDS011;31681;48.982;8.394;2022-11-15T01:26:22;14.33;;;9.30;;
45970;SDS011;31681;48.982;8.394;2022-11-15T01:29:06;13.93;;;9.60;;
45970;SDS011;31681;48.982;8.394;2022-11-15T01:31:50;18.60;;;10.77;;
45970;SDS011;31681;48.982;8.394;2022-11-15T01:34:34;16.90;;;9.83;;
45970;SDS011;31681;48.982;8.394;2022-11-15T01:37:18;15.83;;;9.83;;
45970;SDS011;31681;48.982;8.394;2022-11-15T01:40:02;15.23;;;9.37;;
45970;SDS011;31681;48.982;8.394;2022-11-15T01:42:47;16.50;;;9.60;;
45970;SDS011;31681;48.982;8.394;2022-11-15T01:45:31;12.10;;;8.67;;
45970;SDS011;31681;48.982;8.394;2022-11-15T01:48:15;14.57;;;9.57;;
45970;SDS011;31681;48.982;8.394;2022-11-15T01:51:06;19.47;;;9.93;;
45970;SDS011;31681;48.982;8.394;2022-11-15T01:53:54;14.73;;;9.53;;
45970;SDS011;31681;48.982;8.394;2022-11-15T01:56:41;14.10;;;8.53;;
45970;SDS011;31681;48.982;8.394;2022-11-15T01:59:27;13.60;;;8.77;;
45970;SDS011;31681;48.982;8.394;2022-11-15T02:02:11;16.83;;;9.63;;
45970;SDS011;31681;48.982;8.394;2022-11-15T02:04:55;14.67;;;8.43;;
45970;SDS011;31681;48.982;8.394;2022-11-15T02:07:39;13.70;;;9.40;;
45970;SDS011;31681;48.982;8.394;2022-11-15T02:10:24;16.93;;;8.93;;
45970;SDS011;31681;48.982;8.394;2022-11-15T02:13:08;12.48;;;8.20;;
45970;SDS011;31681;48.982;8.394;2022-11-15T02:18:45;15.60;;;9.40;;
45970;SDS011;31681;48.982;8.394;2022-11-15T02:21:41;17.27;;;9.07;;
45970;SDS011;31681;48.982;8.394;2022-11-15T02:24:39;15.63;;;8.82;;
45970;SDS011;31681;48.982;8.394;2022-11-15T02:30:23;11.82;;;8.48;;
45970;SDS011;31681;48.982;8.394;2022-11-15T02:33:14;12.82;;;8.00;;
45970;SDS011;31681;48.982;8.394;2022-11-15T02:36:10;15.65;;;8.20;;
45970;SDS011;31681;48.982;8.394;2022-11-15T02:41:46;13.13;;;8.18;;
45970;SDS011;31681;48.982;8.394;2022-11-15T02:44:39;13.48;;;8.35;;
45970;SDS011;31681;48.982;8.394;2022-11-15T02:47:24;14.60;;;8.63;;
45970;SDS011;31681;48.982;8.394;2022-11-15T02:50:10;12.90;;;8.63;;
45970;SDS011;31681;48.982;8.394;2022-11-15T02:52:54;12.27;;;7.93;;
45970;SDS011;31681;48.982;8.394;2022-11-15T02:55:41;10.13;;;7.22;;
45970;SDS011;31681;48.982;8.394;2022-11-15T03:01:34;15.98;;;8.20;;
45970;SDS011;31681;48.982;8.394;2022-11-15T03:07:11;12.88;;;8.38;;
45970;SDS011;31681;48.982;8.394;2022-11-15T03:10:02;11.90;;;8.02;;
45970;SDS011;31681;48.982;8.394;2022-11-15T03:12:54;10.75;;;7.35;;
45970;SDS011;31681;48.982;8.394;2022-11-15T03:15:41;14.90;;;8.63;;
45970;SDS011;31681;48.982;8.394;2022-11-15T03:18:32;11.50;;;8.75;;
45970;SDS011;31681;48.982;8.394;2022-11-15T03:21:17;13.40;;;8.23;;
45970;SDS011;31681;48.982;8.394;2022-11-15T03:24:02;12.20;;;8.48;;
45970;SDS011;31681;48.982;8.394;2022-11-15T03:26:47;11.90;;;7.68;;
45970;SDS011;31681;48.982;8.394;2022-11-15T03:29:32;12.93;;;8.38;;
45970;SDS011;31681;48.982;8.394;2022-11-15T03:32:18;14.32;;;8.63;;
45970;SDS011;31681;48.982;8.394;2022-11-15T03:35:11;11.52;;;8.02;;
45970;SDS011;31681;48.982;8.394;2022-11-15T03:40:53;13.85;;;8.15;;
45970;SDS011;31681;48.982;8.394;2022-11-15T03:46:32;12.95;;;8.27;;
45970;SDS011;31681;48.982;8.394;2022-11-15T03:49:20;12.30;;;8.05;;
45970;SDS011;31681;48.982;8.394;2022-11-15T03:52:06;12.45;;;8.05;;
45970;SDS011;31681;48.982;8.394;2022-11-15T03:54:52;12.00;;;7.50;;
45970;SDS011;31681;48.982;8.394;2022-11-15T03:57:36;11.23;;;7.55;;
45970;SDS011;31681;48.982;8.394;2022-11-15T04:00:20;12.38;;;7.43;;
45970;SDS011;31681;48.982;8.394;2022-11-15T04:03:04;10.00;;;6.95;;
45970;SDS011;31681;48.982;8.394;2022-11-15T04:05:48;11.90;;;6.85;;
45970;SDS011;31681;48.982;8.394;2022-11-15T04:08:32;13.35;;;7.80;;
45970;SDS011;31681;48.982;8.394;2022-11-15T04:11:16;12.80;;;7.72;;
45970;SDS011;31681;48.982;8.394;2022-11-15T04:13:59;12.25;;;7.78;;
45970;SDS011;31681;48.982;8.394;2022-11-15T04:16:43;12.18;;;7.90;;
45970;SDS011;31681;48.982;8.394;2022-11-15T04:19:27;15.60;;;7.95;;
45970;SDS011;31681;48.982;8.394;2022-11-15T04:22:30;9.73;;;7.05;;
45970;SDS011;31681;48.982;8.394;2022-11-15T04:25:33;11.90;;;7.20;;
45970;SDS011;31681;48.982;8.394;2022-11-15T04:28:17;10.32;;;7.18;;
45970;SDS011;31681;48.982;8.394;2022-11-15T04:31:02;10.23;;;6.55;;
45970;SDS011;31681;48.982;8.394;2022-11-15T04:33:45;11.25;;;6.82;;
45970;SDS011;31681;48.982;8.394;2022-11-15T04:36:29;10.35;;;6.57;;
45970;SDS011;31681;48.982;8.394;2022-11-15T04:39:32;11.02;;;7.78;;
45970;SDS011;31681;48.982;8.394;2022-11-15T04:42:16;10.73;;;7.25;;
45970;SDS011;31681;48.982;8.394;2022-11-15T04:45:00;12.25;;;7.60;;
45970;SDS011;31681;48.982;8.394;2022-11-15T04:47:44;12.13;;;7.50;;
45970;SDS011;31681;48.982;8.394;2022-11-15T04:50:29;10.32;;;7.18;;
45970;SDS011;31681;48.982;8.394;2022-11-15T04:53:13;10.43;;;7.13;;
45970;SDS011;31681;48.982;8.394;2022-11-15T04:55:57;12.73;;;7.78;;
45970;SDS011;31681;48.982;8.394;2022-11-15T04:58:41;12.23;;;8.15;;
45970;SDS011;31681;48.982;8.394;2022-11-15T05:01:25;12.45;;;7.45;;
45970;SDS011;31681;48.982;8.394;2022-11-15T05:04:09;13.48;;;7.60;;
45970;SDS011;31681;48.982;8.394;2022-11-15T05:07:02;14.25;;;7.28;;
45970;SDS011;31681;48.982;8.394;2022-11-15T05:09:50;14.52;;;7.47;;
45970;SDS011;31681;48.982;8.394;2022-11-15T05:12:34;10.55;;;7.18;;
45970;SDS011;31681;48.982;8.394;2022-11-15T05:15:18;11.50;;;7.05;;
45970;SDS011;31681;48.982;8.394;2022-11-15T05:18:02;10.00;;;6.85;;
45970;SDS011;31681;48.982;8.394;2022-11-15T05:20:46;10.40;;;6.30;;
45970;SDS011;31681;48.982;8.394;2022-11-15T05:23:30;13.43;;;7.13;;
45970;SDS011;31681;48.982;8.394;2022-11-15T05:26:15;9.85;;;7.20;;
45970;SDS011;31681;48.982;8.394;2022-11-15T05:28:59;11.45;;;7.00;;
45970;SDS011;31681;48.982;8.394;2022-11-15T05:31:43;13.07;;;7.72;;
45970;SDS011;31681;48.982;8.394;2022-11-15T05:34:26;10.90;;;7.15;;
45970;SDS011;31681;48.982;8.394;2022-11-15T05:37:10;10.38;;;6.80;;
45970;SDS011;31681;48.982;8.394;2022-11-15T05:39:54;10.02;;;6.55;;
45970;SDS011;31681;48.982;8.394;2022-11-15T05:42:38;10.40;;;6.80;;
45970;SDS011;31681;48.982;8.394;2022-11-15T05:45:22;11.32;;;6.30;;
45970;SDS011;31681;48.982;8.394;2022-11-15T05:48:07;8.13;;;5.97;;
45970;SDS011;31681;48.982;8.394;2022-11-15T05:50:51;10.77;;;6.57;;
45970;SDS011;31681;48.982;8.394;2022-11-15T05:53:35;10.15;;;5.93;;
45970;SDS011;31681;48.982;8.394;2022-11-15T05:56:20;10.38;;;6.38;;
45970;SDS011;31681;48.982;8.394;2022-11-15T05:59:04;9.95;;;7.05;;
45970;SDS011;31681;48.982;8.394;2022-11-15T06:01:48;9.05;;;6.60;;
45970;SDS011;31681;48.982;8.394;2022-11-15T06:04:32;12.25;;;6.15;;
45970;SDS011;31681;48.982;8.394;2022-11-15T06:07:16;9.68;;;6.10;;
45970;SDS011;31681;48.982;8.394;2022-11-15T06:10:00;9.05;;;5.57;;
45970;SDS011;31681;48.982;8.394;2022-11-15T06:12:44;12.63;;;6.50;;
45970;SDS011;31681;48.982;8.394;2022-11-15T06:15:28;12.05;;;7.05;;
45970;SDS011;31681;48.982;8.394;2022-11-15T06:18:12;9.32;;;6.18;;
45970;SDS011;31681;48.982;8.394;2022-11-15T06:20:58;11.45;;;6.57;;
45970;SDS011;31681;48.982;8.394;2022-11-15T06:23:42;15.65;;;8.32;;
45970;SDS011;31681;48.982;8.394;2022-11-15T06:26:26;13.18;;;7.85;;
45970;SDS011;31681;48.982;8.394;2022-11-15T06:29:10;10.40;;;6.32;;
45970;SDS011;31681;48.982;8.394;2022-11-15T06:31:54;9.63;;;6.65;;
45970;SDS011;31681;48.982;8.394;2022-11-15T06:34:38;8.30;;;6.85;;
45970;SDS011;31681;48.982;8.394;2022-11-15T06:37:22;13.63;;;7.63;;
45970;SDS011;31681;48.982;8.394;2022-11-15T06:40:07;10.00;;;6.80;;
45970;SDS011;31681;48.982;8.394;2022-11-15T06:42:51;9.82;;;7.18;;
45970;SDS011;31681;48.982;8.394;2022-11-15T06:45:40;12.63;;;8.32;;
45970;SDS011;31681;48.982;8.394;2022-11-15T06:48:24;14.43;;;8.02;;
45970;SDS011;31681;48.982;8.394;2022-11-15T06:51:08;13.45;;;7.70;;
45970;SDS011;31681;48.982;8.394;2022-11-15T06:53:52;11.13;;;7.47;;
45970;SDS011;31681;48.982;8.394;2022-11-15T06:56:36;11.85;;;7.40;;
45970;SDS011;31681;48.982;8.394;2022-11-15T06:59:20;14.27;;;9.98;;
45970;SDS011;31681;48.982;8.394;2022-11-15T07:02:03;15.55;;;8.65;;
45970;SDS011;31681;48.982;8.394;2022-11-15T07:04:47;11.88;;;7.57;;
45970;SDS011;31681;48.982;8.394;2022-11-15T07:07:31;15.68;;;8.90;;
45970;SDS011;31681;48.982;8.394;2022-11-15T07:10:15;9.30;;;7.03;;
45970;SDS011;31681;48.982;8.394;2022-11-15T07:12:59;11.40;;;7.75;;
45970;SDS011;31681;48.982;8.394;2022-11-15T07:15:43;13.65;;;7.93;;
45970;SDS011;31681;48.982;8.394;2022-11-15T07:18:27;11.10;;;7.28;;
45970;SDS011;31681;48.982;8.394;2022-11-15T07:21:11;11.32;;;7.82;;
45970;SDS011;31681;48.982;8.394;2022-11-15T07:23:56;10.18;;;7.40;;
45970;SDS011;31681;48.982;8.394;2022-11-15T07:26:40;10.25;;;7.00;;
45970;SDS011;31681;48.982;8.394;2022-11-15T07:29:24;11.05;;;6.53;;
45970;SDS011;31681;48.982;8.394;2022-11-15T07:32:09;10.27;;;7.25;;
45970;SDS011;31681;48.982;8.394;2022-11-15T07:34:52;11.73;;;7.20;;
45970;SDS011;31681;48.982;8.394;2022-11-15T07:37:36;9.73;;;6.85;;
45970;SDS011;31681;48.982;8.394;2022-11-15T07:40:20;10.65;;;7.07;;
45970;SDS011;31681;48.982;8.394;2022-11-15T07:43:05;9.77;;;7.28;;
45970;SDS011;31681;48.982;8.394;2022-11-15T07:45:49;9.63;;;6.90;;
45970;SDS011;31681;48.982;8.394;2022-11-15T07:48:33;11.82;;;7.50;;
45970;SDS011;31681;48.982;8.394;2022-11-15T07:51:17;13.35;;;8.07;;
45970;SDS011;31681;48.982;8.394;2022-11-15T07:54:01;12.55;;;8.07;;
45970;SDS011;31681;48.982;8.394;2022-11-15T07:56:45;12.15;;;7.95;;
45970;SDS011;31681;48.982;8.394;2022-11-15T07:59:29;13.50;;;8.35;;
45970;SDS011;31681;48.982;8.394;2022-11-15T08:02:12;14.90;;;8.35;;
45970;SDS011;31681;48.982;8.394;2022-11-15T08:04:56;10.77;;;7.90;;
45970;SDS011;31681;48.982;8.394;2022-11-15T08:07:41;13.30;;;9.15;;
45970;SDS011;31681;48.982;8.394;2022-11-15T08:10:25;13.05;;;8.90;;
45970;SDS011;31681;48.982;8.394;2022-11-15T08:13:10;14.88;;;8.52;;
45970;SDS011;31681;48.982;8.394;2022-11-15T08:15:58;14.25;;;8.45;;
45970;SDS011;31681;48.982;8.394;2022-11-15T08:18:42;12.82;;;7.50;;
45970;SDS011;31681;48.982;8.394;2022-11-15T08:21:26;11.75;;;7.32;;
45970;SDS011;31681;48.982;8.394;2022-11-15T08:24:10;10.65;;;7.07;;
45970;SDS011;31681;48.982;8.394;2022-11-15T08:26:54;8.57;;;6.70;;
45970;SDS011;31681;48.982;8.394;2022-11-15T08:29:38;11.05;;;7.32;;
45970;SDS011;31681;48.982;8.394;2022-11-15T08:32:22;13.23;;;8.20;;
45970;SDS011;31681;48.982;8.394;2022-11-15T08:35:06;16.27;;;8.10;;
45970;SDS011;31681;48.982;8.394;2022-11-15T08:37:52;19.92;;;10.00;;
45970;SDS011;31681;48.982;8.394;2022-11-15T08:40:36;15.32;;;7.30;;
45970;SDS011;31681;48.982;8.394;2022-11-15T08:43:21;11.98;;;7.53;;
45970;SDS011;31681;48.982;8.394;2022-11-15T08:46:05;18.50;;;10.90;;
45970;SDS011;31681;48.982;8.394;2022-11-15T08:48:49;20.75;;;11.10;;
45970;SDS011;31681;48.982;8.394;2022-11-15T08:51:33;15.88;;;10.00;;
45970;SDS011;31681;48.982;8.394;2022-11-15T08:54:17;13.65;;;7.85;;
45970;SDS011;31681;48.982;8.394;2022-11-15T08:57:01;9.85;;;6.03;;
45970;SDS011;31681;48.982;8.394;2022-11-15T08:59:45;9.55;;;5.22;;
45970;SDS011;31681;48.982;8.394;2022-11-15T09:02:29;8.98;;;5.38;;
45970;SDS011;31681;48.982;8.394;2022-11-15T09:05:13;10.23;;;5.90;;
45970;SDS011;31681;48.982;8.394;2022-11-15T09:07:58;8.00;;;5.45;;
45970;SDS011;31681;48.982;8.394;2022-11-15T09:10:42;10.40;;;5.28;;
45970;SDS011;31681;48.982;8.394;2022-11-15T09:13:26;9.63;;;5.75;;
45970;SDS011;31681;48.982;8.394;2022-11-15T09:16:10;7.95;;;5.22;;
45970;SDS011;31681;48.982;8.394;2022-11-15T09:18:55;10.30;;;5.32;;
45970;SDS011;31681;48.982;8.394;2022-11-15T09:21:39;9.40;;;5.43;;
45970;SDS011;31681;48.982;8.394;2022-11-15T09:24:23;10.40;;;5.47;;
45970;SDS011;31681;48.982;8.394;2022-11-15T09:27:07;12.05;;;5.90;;
45970;SDS011;31681;48.982;8.394;2022-11-15T09:29:51;8.60;;;5.28;;
45970;SDS011;31681;48.982;8.394;2022-11-15T09:32:35;9.23;;;5.15;;
45970;SDS011;31681;48.982;8.394;2022-11-15T09:35:19;7.68;;;5.05;;
45970;SDS011;31681;48.982;8.394;2022-11-15T09:38:03;9.02;;;5.07;;
45970;SDS011;31681;48.982;8.394;2022-11-15T09:40:48;9.65;;;5.35;;
45970;SDS011;31681;48.982;8.394;2022-11-15T09:46:39;9.75;;;5.15;;
45970;SDS011;31681;48.982;8.394;2022-11-15T09:49:10;11.10;;;5.80;;
45970;SDS011;31681;48.982;8.394;2022-11-15T09:52:00;14.20;;;6.22;;
45970;SDS011;31681;48.982;8.394;2022-11-15T09:54:27;11.30;;;5.93;;
45970;SDS011;31681;48.982;8.394;2022-11-15T09:56:55;10.77;;;5.90;;
45970;SDS011;31681;48.982;8.394;2022-11-15T10:04:17;10.70;;;6.70;;
45970;SDS011;31681;48.982;8.394;2022-11-15T10:06:46;11.25;;;6.22;;
45970;SDS011;31681;48.982;8.394;2022-11-15T10:09:14;9.55;;;5.30;;
45970;SDS011;31681;48.982;8.394;2022-11-15T10:11:40;9.65;;;5.40;;
45970;SDS011;31681;48.982;8.394;2022-11-15T10:14:20;8.82;;;5.20;;
45970;SDS011;31681;48.982;8.394;2022-11-15T10:27:33;14.73;;;5.72;;
45970;SDS011;31681;48.982;8.394;2022-11-15T10:29:59;12.10;;;5.95;;
45970;SDS011;31681;48.982;8.394;2022-11-15T10:32:24;9.38;;;5.50;;
45970;SDS011;31681;48.982;8.394;2022-11-15T10:34:50;10.57;;;5.80;;
45970;SDS011;31681;48.982;8.394;2022-11-15T10:37:27;11.35;;;6.30;;
45970;SDS011;31681;48.982;8.394;2022-11-15T10:40:02;11.52;;;5.65;;
45970;SDS011;31681;48.982;8.394;2022-11-15T10:42:28;10.40;;;5.30;;
45970;SDS011;31681;48.982;8.394;2022-11-15T10:44:54;11.55;;;5.13;;
45970;SDS011;31681;48.982;8.394;2022-11-15T10:49:52;11.43;;;6.72;;
45970;SDS011;31681;48.982;8.394;2022-11-15T10:52:18;11.75;;;5.82;;
45970;SDS011;31681;48.982;8.394;2022-11-15T10:54:46;11.02;;;6.13;;
45970;SDS011;31681;48.982;8.394;2022-11-15T10:57:16;10.15;;;7.22;;
45970;SDS011;31681;48.982;8.394;2022-11-15T10:59:44;8.27;;;6.43;;
45970;SDS011;31681;48.982;8.394;2022-11-15T11:04:51;14.35;;;6.57;;
45970;SDS011;31681;48.982;8.394;2022-11-15T11:07:22;9.63;;;6.10;;
45970;SDS011;31681;48.982;8.394;2022-11-15T11:09:49;10.85;;;6.40;;
45970;SDS011;31681;48.982;8.394;2022-11-15T11:12:26;10.32;;;5.88;;
45970;SDS011;31681;48.982;8.394;2022-11-15T11:14:52;9.52;;;5.32;;
45970;SDS011;31681;48.982;8.394;2022-11-15T11:32:39;8.82;;;5.82;;
45970;SDS011;31681;48.982;8.394;2022-11-15T11:40:21;13.27;;;6.65;;
45970;SDS011;31681;48.982;8.394;2022-11-15T11:42:58;7.13;;;5.35;;
45970;SDS011;31681;48.982;8.394;2022-11-15T11:45:40;8.00;;;4.97;;
45970;SDS011;31681;48.982;8.394;2022-11-15T11:50:36;8.02;;;4.90;;
45970;SDS011;31681;48.982;8.394;2022-11-15T11:55:43;9.50;;;5.32;;
45970;SDS011;31681;48.982;8.394;2022-11-15T12:00:54;9.43;;;5.43;;
45970;SDS011;31681;48.982;8.394;2022-11-15T12:03:28;13.90;;;6.15;;
45970;SDS011;31681;48.982;8.394;2022-11-15T12:05:59;12.48;;;5.80;;
45970;SDS011;31681;48.982;8.394;2022-11-15T12:11:07;8.05;;;4.50;;
45970;SDS011;31681;48.982;8.394;2022-11-15T12:13:34;8.15;;;5.05;;
45970;SDS011;31681;48.982;8.394;2022-11-15T12:18:27;7.45;;;4.45;;
45970;SDS011;31681;48.982;8.394;2022-11-15T12:20:57;6.93;;;4.80;;
45970;SDS011;31681;48.982;8.394;2022-11-15T12:23:28;6.50;;;4.38;;
45970;SDS011;31681;48.982;8.394;2022-11-15T12:25:56;5.03;;;3.80;;
45970;SDS011;31681;48.982;8.394;2022-11-15T12:28:37;5.82;;;3.60;;
45970;SDS011;31681;48.982;8.394;2022-11-15T12:33:36;6.22;;;4.60;;
45970;SDS011;31681;48.982;8.394;2022-11-15T12:36:03;5.97;;;4.03;;
45970;SDS011;31681;48.982;8.394;2022-11-15T12:41:14;5.60;;;4.07;;
45970;SDS011;31681;48.982;8.394;2022-11-15T12:43:41;6.65;;;4.68;;
45970;SDS011;31681;48.982;8.394;2022-11-15T12:46:11;9.75;;;4.90;;
45970;SDS011;31681;48.982;8.394;2022-11-15T12:51:02;7.03;;;4.07;;
45970;SDS011;31681;48.982;8.394;2022-11-15T13:01:06;7.43;;;4.13;;
45970;SDS011;31681;48.982;8.394;2022-11-15T13:03:32;7.85;;;3.95;;
45970;SDS011;31681;48.982;8.394;2022-11-15T13:05:58;7.28;;;3.13;;
45970;SDS011;31681;48.982;8.394;2022-11-15T13:08:37;8.52;;;3.53;;
45970;SDS011;31681;48.982;8.394;2022-11-15T13:11:46;4.90;;;3.22;;
45970;SDS011;31681;48.982;8.394;2022-11-15T13:13:51;4.60;;;2.80;;
45970;SDS011;31681;48.982;8.394;2022-11-15T13:16:18;4.80;;;2.65;;
45970;SDS011;31681;48.982;8.394;2022-11-15T13:18:45;5.85;;;3.20;;
45970;SDS011;31681;48.982;8.394;2022-11-15T13:21:19;6.03;;;3.28;;
45970;SDS011;31681;48.982;8.394;2022-11-15T13:24:03;3.58;;;2.78;;
45970;SDS011;31681;48.982;8.394;2022-11-15T13:26:29;4.65;;;3.00;;
45970;SDS011;31681;48.982;8.394;2022-11-15T13:28:54;5.75;;;3.22;;
45970;SDS011;31681;48.982;8.394;2022-11-15T13:31:34;5.70;;;2.88;;
45970;SDS011;31681;48.982;8.394;2022-11-15T13:34:01;5.65;;;2.80;;
45970;SDS011;31681;48.982;8.394;2022-11-15T13:36:28;5.30;;;3.30;;
45970;SDS011;31681;48.982;8.394;2022-11-15T13:38:55;8.32;;;3.35;;
45970;SDS011;31681;48.982;8.394;2022-11-15T13:41:23;7.95;;;3.10;;
45970;SDS011;31681;48.982;8.394;2022-11-15T13:43:49;7.78;;;3.35;;
45970;SDS011;31681;48.982;8.394;2022-11-15T13:48:43;3.80;;;2.55;;
45970;SDS011;31681;48.982;8.394;2022-11-15T13:53:41;3.83;;;3.00;;
45970;SDS011;31681;48.982;8.394;2022-11-15T13:56:08;5.07;;;2.80;;
45970;SDS011;31681;48.982;8.394;2022-11-15T13:58:36;5.22;;;2.60;;
45970;SDS011;31681;48.982;8.394;2022-11-15T14:01:03;6.70;;;2.97;;
45970;SDS011;31681;48.982;8.394;2022-11-15T14:03:33;6.13;;;3.33;;
45970;SDS011;31681;48.982;8.394;2022-11-15T14:08:31;7.78;;;4.13;;
45970;SDS011;31681;48.982;8.394;2022-11-15T14:11:07;5.82;;;3.58;;
45970;SDS011;31681;48.982;8.394;2022-11-15T14:13:33;4.88;;;3.50;;
45970;SDS011;31681;48.982;8.394;2022-11-15T14:21:08;7.57;;;2.97;;
45970;SDS011;31681;48.982;8.394;2022-11-15T14:23:34;4.70;;;3.50;;
45970;SDS011;31681;48.982;8.394;2022-11-15T14:25:59;3.90;;;3.08;;
45970;SDS011;31681;48.982;8.394;2022-11-15T14:30:51;6.65;;;4.07;;
45970;SDS011;31681;48.982;8.394;2022-11-15T14:35:42;4.63;;;3.53;;
45970;SDS011;31681;48.982;8.394;2022-11-15T14:38:07;3.83;;;3.30;;
45970;SDS011;31681;48.982;8.394;2022-11-15T14:40:32;4.50;;;3.40;;
45970;SDS011;31681;48.982;8.394;2022-11-15T14:42:58;4.90;;;3.20;;
45970;SDS011;31681;48.982;8.394;2022-11-15T14:45:23;4.60;;;3.40;;
45970;SDS011;31681;48.982;8.394;2022-11-15T14:47:48;6.97;;;2.97;;
45970;SDS011;31681;48.982;8.394;2022-11-15T14:50:15;4.63;;;2.97;;
45970;SDS011;31681;48.982;8.394;2022-11-15T14:52:40;7.72;;;3.45;;
45970;SDS011;31681;48.982;8.394;2022-11-15T14:55:28;6.47;;;3.20;;
45970;SDS011;31681;48.982;8.394;2022-11-15T14:57:53;12.80;;;5.93;;
45970;SDS011;31681;48.982;8.394;2022-11-15T15:00:18;8.05;;;6.72;;
45970;SDS011;31681;48.982;8.394;2022-11-15T15:02:44;7.70;;;4.95;;
45970;SDS011;31681;48.982;8.394;2022-11-15T15:05:14;6.00;;;4.70;;
45970;SDS011;31681;48.982;8.394;2022-11-15T15:07:40;7.88;;;4.55;;
45970;SDS011;31681;48.982;8.394;2022-11-15T15:10:05;7.53;;;3.88;;
45970;SDS011;31681;48.982;8.394;2022-11-15T15:12:31;28.35;;;12.07;;
45970;SDS011;31681;48.982;8.394;2022-11-15T15:14:56;16.42;;;7.85;;
45970;SDS011;31681;48.982;8.394;2022-11-15T15:17:21;11.40;;;6.20;;
45970;SDS011;31681;48.982;8.394;2022-11-15T15:19:47;13.80;;;9.13;;
45970;SDS011;31681;48.982;8.394;2022-11-15T15:22:16;10.63;;;6.35;;
45970;SDS011;31681;48.982;8.394;2022-11-15T15:24:42;10.20;;;6.63;;
45970;SDS011;31681;48.982;8.394;2022-11-15T15:27:08;10.82;;;6.75;;
45970;SDS011;31681;48.982;8.394;2022-11-15T15:29:33;9.00;;;6.15;;
45970;SDS011;31681;48.982;8.394;2022-11-15T15:31:59;9.63;;;6.32;;
45970;SDS011;31681;48.982;8.394;2022-11-15T15:34:24;9.38;;;5.60;;
45970;SDS011;31681;48.982;8.394;2022-11-15T15:36:50;9.07;;;5.05;;
45970;SDS011;31681;48.982;8.394;2022-11-15T15:39:31;10.80;;;5.53;;
45970;SDS011;31681;48.982;8.394;2022-11-15T15:41:56;13.10;;;6.18;;
45970;SDS011;31681;48.982;8.394;2022-11-15T15:44:21;8.30;;;5.40;;
45970;SDS011;31681;48.982;8.394;2022-11-15T15:46:47;8.90;;;4.80;;
45970;SDS011;31681;48.982;8.394;2022-11-15T15:49:12;9.60;;;5.03;;
45970;SDS011;31681;48.982;8.394;2022-11-15T15:51:37;9.60;;;4.95;;
45970;SDS011;31681;48.982;8.394;2022-11-15T15:54:03;10.90;;;5.32;;
45970;SDS011;31681;48.982;8.394;2022-11-15T15:56:28;8.60;;;5.18;;
45970;SDS011;31681;48.982;8.394;2022-11-15T15:58:53;12.57;;;6.20;;
45970;SDS011;31681;48.982;8.394;2022-11-15T16:01:20;6.88;;;4.88;;
45970;SDS011;31681;48.982;8.394;2022-11-15T16:03:46;9.27;;;4.90;;
45970;SDS011;31681;48.982;8.394;2022-11-15T16:08:55;6.80;;;5.45;;
45970;SDS011;31681;48.982;8.394;2022-11-15T16:11:21;11.55;;;6.10;;
45970;SDS011;31681;48.982;8.394;2022-11-15T16:13:46;9.63;;;6.15;;
45970;SDS011;31681;48.982;8.394;2022-11-15T16:16:12;12.27;;;6.10;;
45970;SDS011;31681;48.982;8.394;2022-11-15T16:18:38;8.05;;;5.60;;
45970;SDS011;31681;48.982;8.394;2022-11-15T16:21:03;10.95;;;5.20;;
45970;SDS011;31681;48.982;8.394;2022-11-15T16:23:28;9.95;;;5.15;;
45970;SDS011;31681;48.982;8.394;2022-11-15T16:25:54;11.00;;;5.57;;
45970;SDS011;31681;48.982;8.394;2022-11-15T16:28:21;10.45;;;5.53;;
45970;SDS011;31681;48.982;8.394;2022-11-15T16:30:47;9.05;;;5.13;;
45970;SDS011;31681;48.982;8.394;2022-11-15T16:33:13;8.52;;;4.72;;
45970;SDS011;31681;48.982;8.394;2022-11-15T16:35:38;6.82;;;4.85;;
45970;SDS011;31681;48.982;8.394;2022-11-15T16:38:03;8.35;;;5.30;;
45970;SDS011;31681;48.982;8.394;2022-11-15T16:40:30;8.60;;;4.93;;
45970;SDS011;31681;48.982;8.394;2022-11-15T16:42:56;7.82;;;5.20;;
45970;SDS011;31681;48.982;8.394;2022-11-15T16:45:22;9.55;;;4.88;;
45970;SDS011;31681;48.982;8.394;2022-11-15T16:47:47;6.25;;;5.13;;
45970;SDS011;31681;48.982;8.394;2022-11-15T16:50:17;7.75;;;5.13;;
45970;SDS011;31681;48.982;8.394;2022-11-15T16:52:43;9.48;;;4.90;;
45970;SDS011;31681;48.982;8.394;2022-11-15T16:55:09;7.72;;;5.10;;
45970;SDS011;31681;48.982;8.394;2022-11-15T16:57:34;8.80;;;4.90;;
45970;SDS011;31681;48.982;8.394;2022-11-15T16:59:59;8.23;;;4.50;;
45970;SDS011;31681;48.982;8.394;2022-11-15T17:02:25;10.15;;;5.22;;
45970;SDS011;31681;48.982;8.394;2022-11-15T17:04:50;8.10;;;4.90;;
45970;SDS011;31681;48.982;8.394;2022-11-15T17:07:15;7.55;;;4.90;;
45970;SDS011;31681;48.982;8.394;2022-11-15T17:09:41;9.02;;;4.85;;
45970;SDS011;31681;48.982;8.394;2022-11-15T17:12:06;7.07;;;4.55;;
45970;SDS011;31681;48.982;8.394;2022-11-15T17:14:32;9.93;;;5.07;;
45970;SDS011;31681;48.982;8.394;2022-11-15T17:16:57;9.02;;;4.85;;
45970;SDS011;31681;48.982;8.394;2022-11-15T17:19:22;8.15;;;4.88;;
45970;SDS011;31681;48.982;8.394;2022-11-15T17:21:48;6.70;;;4.78;;
45970;SDS011;31681;48.982;8.394;2022-11-15T17:24:14;7.40;;;4.72;;
45970;SDS011;31681;48.982;8.394;2022-11-15T17:26:39;8.20;;;5.50;;
45970;SDS011;31681;48.982;8.394;2022-11-15T17:29:04;7.93;;;5.43;;
45970;SDS011;31681;48.982;8.394;2022-11-15T17:31:32;10.35;;;5.70;;
45970;SDS011;31681;48.982;8.394;2022-11-15T17:33:59;9.35;;;5.50;;